createdAt,value
2019-05-17T00:09:01.385Z,7.50
2019-05-17T00:20:01.251Z,6.90
2019-05-17T00:31:01.167Z,9.40
2019-05-17T00:42:01.038Z,6.60
2019-05-17T00:53:00.885Z,8.10
2019-05-17T01:04:00.771Z,8.60
2019-05-17T01:15:00.654Z,8.50
2019-05-17T01:26:00.513Z,8.60
2019-05-17T01:37:00.397Z,7.70
2019-05-17T01:48:00.271Z,8.60
2019-05-17T01:59:00.145Z,8.60
2019-05-17T02:10:00.023Z,9.50
2019-05-17T02:20:59.905Z,8.00
2019-05-17T02:32:03.508Z,7.90
2019-05-17T02:43:02.811Z,8.70
2019-05-17T02:53:59.535Z,8.10
2019-05-17T03:04:59.409Z,8.60
2019-05-17T03:15:59.287Z,7.30
2019-05-17T03:26:59.169Z,8.60
2019-05-17T03:37:59.056Z,10.10
2019-05-17T03:48:58.922Z,10.10
2019-05-17T03:59:58.794Z,8.60
2019-05-17T04:11:16.349Z,8.70
2019-05-17T04:21:58.638Z,8.50
2019-05-17T04:32:58.430Z,8.70
2019-05-17T04:43:58.314Z,7.40
2019-05-17T04:54:58.201Z,7.70
2019-05-17T05:05:58.057Z,8.10
2019-05-17T05:16:57.939Z,7.50
2019-05-17T05:27:57.814Z,7.00
2019-05-17T05:38:57.702Z,7.50
2019-05-17T05:49:58.036Z,9.20
2019-05-17T06:00:57.445Z,8.40
2019-05-17T06:11:57.322Z,12.10
2019-05-17T06:22:57.227Z,9.30
2019-05-17T06:33:57.079Z,11.00
2019-05-17T06:44:56.952Z,9.20
2019-05-17T06:55:56.849Z,13.20
2019-05-17T07:06:56.733Z,13.00
2019-05-17T07:17:56.588Z,13.70
2019-05-17T07:28:56.465Z,13.80
2019-05-17T07:40:01.072Z,14.80
2019-05-17T07:50:56.218Z,14.00
2019-05-17T08:01:56.088Z,12.70
2019-05-17T08:12:55.979Z,11.20
2019-05-17T08:23:55.858Z,12.60
2019-05-17T08:34:55.742Z,11.10
2019-05-17T08:45:58.422Z,7.60
2019-05-17T08:56:55.488Z,6.80
2019-05-17T09:07:55.351Z,4.90
2019-05-17T09:18:55.244Z,4.00
2019-05-17T09:29:55.116Z,2.70
2019-05-17T09:40:54.982Z,3.60
2019-05-17T09:51:54.859Z,3.30
2019-05-17T10:02:54.741Z,4.30
2019-05-17T10:13:54.614Z,4.60
2019-05-17T10:24:54.503Z,3.60
2019-05-17T10:35:54.381Z,3.40
2019-05-17T10:46:54.251Z,4.10
2019-05-17T10:57:54.123Z,5.20
2019-05-17T11:08:54.014Z,3.90
2019-05-17T11:19:53.880Z,4.10
2019-05-17T11:30:53.761Z,5.30
2019-05-17T11:31:48.762Z,5.30
2019-05-17T11:32:48.744Z,4.90
2019-05-17T11:43:53.632Z,4.30
2019-05-17T11:54:53.502Z,3.90
2019-05-17T12:05:53.385Z,3.60
2019-05-17T12:16:53.265Z,3.40
2019-05-17T12:17:48.273Z,3.70
2019-05-17T12:18:48.251Z,4.60
2019-05-17T12:29:53.128Z,3.20
2019-05-17T12:30:48.131Z,3.50
2019-05-17T12:31:48.106Z,3.90
2019-05-17T12:42:52.997Z,4.50
2019-05-17T12:53:52.874Z,3.30
2019-05-17T13:04:52.740Z,4.00
2019-05-17T13:15:52.620Z,4.20
2019-05-17T13:26:52.555Z,3.30
2019-05-17T13:37:52.392Z,5.80
2019-05-17T13:48:52.278Z,3.70
2019-05-17T13:59:52.655Z,3.50
2019-05-17T14:10:52.023Z,3.50
2019-05-17T14:21:51.975Z,4.00
2019-05-17T14:32:51.835Z,4.20
2019-05-17T14:43:51.661Z,3.90
2019-05-17T14:54:51.539Z,4.90
2019-05-17T15:05:51.811Z,3.90
2019-05-17T15:16:51.290Z,4.10
2019-05-17T15:27:52.180Z,3.50
2019-05-17T15:38:51.044Z,4.80
2019-05-17T15:49:50.929Z,3.90
2019-05-17T16:00:50.802Z,3.70
2019-05-17T16:11:50.699Z,3.20
2019-05-17T16:22:50.574Z,3.20
2019-05-17T16:33:51.057Z,3.70
2019-05-17T16:44:50.324Z,3.40
2019-05-17T16:55:50.207Z,3.30
2019-05-17T17:06:50.088Z,3.10
2019-05-17T17:17:49.995Z,5.30
2019-05-17T17:28:49.861Z,4.00
2019-05-17T17:39:49.738Z,4.20
2019-05-17T17:50:49.616Z,4.60
2019-05-17T18:01:49.619Z,3.90
2019-05-17T18:12:49.359Z,4.60
2019-05-17T18:23:49.235Z,3.60
2019-05-17T18:34:49.126Z,3.70
2019-05-17T18:45:49.010Z,2.90
2019-05-17T18:56:48.872Z,3.40
2019-05-17T19:07:48.787Z,2.40
2019-05-17T19:18:48.628Z,3.90
2019-05-17T19:29:48.500Z,3.40
2019-05-17T19:40:48.381Z,2.80
2019-05-17T19:51:48.284Z,3.90
2019-05-17T20:02:48.133Z,3.90
2019-05-17T20:13:48.015Z,3.20
2019-05-17T20:24:47.891Z,4.30
2019-05-17T20:35:47.772Z,2.90
2019-05-17T20:46:47.650Z,4.00
2019-05-17T20:57:47.547Z,2.50
2019-05-17T21:08:47.421Z,3.10
2019-05-17T21:19:47.283Z,3.80
2019-05-17T21:30:47.166Z,3.40
2019-05-17T21:41:47.041Z,3.20
2019-05-17T21:52:46.918Z,3.20
2019-05-17T22:03:46.795Z,4.00
2019-05-17T22:14:46.688Z,3.90
2019-05-17T22:25:46.550Z,3.60
2019-05-17T22:36:46.426Z,4.00
2019-05-17T22:47:46.307Z,2.90
2019-05-17T22:58:46.181Z,3.50
2019-05-17T23:09:46.060Z,2.70
2019-05-17T23:20:45.948Z,3.60
2019-05-17T23:31:45.832Z,3.90
2019-05-17T23:42:45.694Z,4.00
2019-05-17T23:53:45.569Z,2.70
